Northern Aroostook Rgnl Information

FAA: FVE - ICAO: KFVE

Northern Aroostook Rgnl (Airport) Location

State Maine
County Aroostook
City Frenchville
Northern Aroostook Rgnl (Airport) is 3 miles east of Frenchville, ME.
Latitude 47-17-07.8000N
Longitude 068-18-45.8000W
Elevation 987ft

Northern Aroostook Rgnl METARs

METAR KFVE 262353Z AUTO 32010KT 10SM CLR M23/M28 A3028 RMK AO2 SLP284 T12331278 11189 21239 51017
Altimeter 30.28"
Temperature -23.3°C (-9.9°F)
Wind 320° at 10KT
Clouds Skies are clear.
Visibility 10.0mi
Time observed: 2022-01-26T23:53:00Z

Northern Aroostook Rgnl (Airport) Details

Status Operational
Activation June 1972
Ownership Public
Usage Public
Chart HALIFAX
ATC on-site No
Beacon schedule sunset-sunrise
Beacon color clear green

Northern Aroostook Rgnl (Airport) Contacts

Owner N AROOSTOOK RGNL APT AUTH
Owner address 74 AIRPORT AVE, FRENCHVILLE, ME 04745
Owner phone 207-543-6300
Manager NEAL STRANGE
Manager address BOX 422, RAYMOND, ME 04071
Manager phone 207-627-4229

Northern Aroostook Rgnl Radio Frequencies

Northern Aroostook Rgnl (Airport) Radio Frequencies

UNICOM 122.7
Common traffic advisory frequency (CTAF) 122.7